Mafeking, South Africa
Current Conditions -  °F | °C
As of 7:00 PM on Monday 22 Dec 2014 (Local Time) from FAMM Reporting Station
Clear Clear  
Wind Chill: 75°   Ceiling: Unl
Heat Index: 75°   Visibility: 6mi
Dew Point: 52°   Wind: 7mph
Humidity: 44%   Direction: 20°NNE
Pressure: 30.03"   Gusts: NA
Location:  25.86°S, 25.65°E
Report Text: FAMM 221700Z 02006KT CAVOK 24/11 Q1017 NOSIG
Loading
Personal Weather Stations






























Interactive Weather Map New forecast layout! Learn more

10-Day Weather Forecast

Advertisements
Track Severe Weather on mobile